Time;durP1;ratioP1;P1;durP2;ratioP2;P2;SDS_P1;SDS_P2;PMS_P1;PMS_P2;Temp;Humidity;BMP_temperature;BMP_pressure;BME280_temperature;BME280_humidity;BME280_pressure;Samples;Min_cycle;Max_cycle;Signal;HPM_P1;HPM_P2
2022/03/16 00:02:23;;;;;;;14.77;12.30;;;;;;;;;;4988729;28;20082;-70
2022/03/16 00:04:52;;;;;;;16.38;13.82;;;;;;;;;;4987765;28;20065;-71
2022/03/16 00:07:20;;;;;;;16.52;14.18;;;;;;;;;;4988095;28;20039;-71
2022/03/16 00:09:47;;;;;;;17.50;15.07;;;;;;;;;;4988606;28;20041;-71
2022/03/16 00:12:16;;;;;;;20.52;15.48;;;;;;;;;;4988219;28;20117;-70
2022/03/16 00:14:43;;;;;;;16.25;12.55;;;;;;;;;;4998063;28;20117;-71
2022/03/16 00:17:11;;;;;;;13.43;10.55;;;;;;;;;;4984754;28;20046;-71
2022/03/16 00:19:42;;;;;;;14.63;13.05;;;;;;;;;;4985586;28;20074;-71
2022/03/16 00:22:09;;;;;;;15.60;13.27;;;;;;;;;;4980303;28;20548;-69
2022/03/16 00:24:37;;;;;;;15.20;13.77;;;;;;;;;;4987294;28;20046;-71
2022/03/16 00:27:05;;;;;;;17.60;14.23;;;;;;;;;;4987752;28;20042;-70
2022/03/16 00:29:32;;;;;;;16.00;14.35;;;;;;;;;;4986404;28;20456;-71
2022/03/16 00:32:03;;;;;;;17.90;16.00;;;;;;;;;;5002611;28;20085;-70
2022/03/16 00:34:31;;;;;;;17.60;15.80;;;;;;;;;;4986295;28;20038;-71
2022/03/16 00:37:00;;;;;;;14.88;12.85;;;;;;;;;;5011444;28;20042;-70
2022/03/16 00:39:27;;;;;;;17.67;15.70;;;;;;;;;;5008139;28;20038;-71
2022/03/16 00:41:56;;;;;;;18.15;15.80;;;;;;;;;;5006743;28;20061;-68
2022/03/16 00:44:24;;;;;;;13.63;12.27;;;;;;;;;;5002823;28;20042;-71
2022/03/16 00:46:51;;;;;;;17.63;15.75;;;;;;;;;;4987836;28;20101;-71
2022/03/16 00:49:19;;;;;;;18.10;16.20;;;;;;;;;;4987827;28;20672;-69
2022/03/16 00:51:47;;;;;;;16.85;15.13;;;;;;;;;;4978249;28;20118;-69
2022/03/16 00:54:14;;;;;;;18.25;16.30;;;;;;;;;;4980387;28;20047;-70
2022/03/16 00:56:41;;;;;;;13.65;12.43;;;;;;;;;;4986956;28;20129;-70
2022/03/16 00:59:09;;;;;;;17.08;15.27;;;;;;;;;;5003240;28;20117;-69
2022/03/16 01:01:37;;;;;;;15.32;13.82;;;;;;;;;;4987967;28;20046;-71
2022/03/16 01:04:04;;;;;;;15.85;14.32;;;;;;;;;;4987338;28;20477;-70
2022/03/16 01:06:32;;;;;;;14.73;13.23;;;;;;;;;;5002236;28;20048;-70
2022/03/16 01:08:59;;;;;;;13.52;12.23;;;;;;;;;;4987556;28;20803;-71
2022/03/16 01:11:27;;;;;;;17.88;15.48;;;;;;;;;;4986948;28;20152;-71
2022/03/16 01:13:54;;;;;;;19.05;16.95;;;;;;;;;;4983930;28;20039;-69
2022/03/16 01:16:22;;;;;;;15.15;13.50;;;;;;;;;;4994549;28;20037;-70
2022/03/16 01:18:49;;;;;;;16.27;14.63;;;;;;;;;;4989904;28;20568;-71
2022/03/16 01:21:18;;;;;;;16.77;14.95;;;;;;;;;;5006505;28;20047;-71
2022/03/16 01:23:45;;;;;;;15.25;13.20;;;;;;;;;;5006526;28;20117;-70
2022/03/16 01:26:13;;;;;;;15.25;13.73;;;;;;;;;;4990115;28;20047;-68
2022/03/16 01:28:40;;;;;;;21.35;17.45;;;;;;;;;;4990624;28;20070;-71
2022/03/16 01:31:08;;;;;;;15.82;14.05;;;;;;;;;;4991536;28;20046;-71
2022/03/16 01:33:35;;;;;;;17.77;15.77;;;;;;;;;;4991440;28;20124;-68
2022/03/16 01:36:03;;;;;;;12.07;10.85;;;;;;;;;;5005292;28;20446;-71
2022/03/16 01:38:30;;;;;;;17.38;15.55;;;;;;;;;;4991443;28;20042;-71
2022/03/16 01:40:58;;;;;;;16.85;15.10;;;;;;;;;;5006260;28;20045;-70
2022/03/16 01:43:25;;;;;;;18.92;16.83;;;;;;;;;;4991131;28;20089;-71
2022/03/16 01:45:53;;;;;;;17.63;15.32;;;;;;;;;;4990780;28;20125;-71
2022/03/16 01:48:21;;;;;;;15.73;14.13;;;;;;;;;;4991693;28;20085;-69
2022/03/16 01:50:48;;;;;;;18.63;16.02;;;;;;;;;;4990625;28;20694;-69
2022/03/16 01:53:16;;;;;;;13.50;12.05;;;;;;;;;;4991820;28;20778;-70
2022/03/16 01:55:44;;;;;;;16.50;14.27;;;;;;;;;;4990198;28;20099;-71
2022/03/16 01:58:11;;;;;;;18.98;15.65;;;;;;;;;;4990599;28;20050;-71
2022/03/16 02:00:40;;;;;;;21.80;16.20;;;;;;;;;;5000714;28;20502;-70
2022/03/16 02:03:08;;;;;;;15.90;14.02;;;;;;;;;;4988100;28;20112;-71
2022/03/16 02:05:36;;;;;;;15.95;14.32;;;;;;;;;;4987105;28;20046;-71
2022/03/16 02:08:05;;;;;;;13.63;12.25;;;;;;;;;;4990621;28;20137;-69
2022/03/16 02:10:32;;;;;;;12.38;11.07;;;;;;;;;;4987315;28;20050;-71
2022/03/16 02:13:00;;;;;;;13.75;12.35;;;;;;;;;;4989474;28;20855;-68
2022/03/16 02:15:27;;;;;;;15.15;13.20;;;;;;;;;;4988169;28;20057;-71
2022/03/16 02:17:55;;;;;;;12.68;11.18;;;;;;;;;;4989546;28;20528;-71
2022/03/16 02:20:24;;;;;;;13.77;12.38;;;;;;;;;;4987718;28;20116;-71
2022/03/16 02:22:55;;;;;;;14.27;12.85;;;;;;;;;;4989795;28;20125;-71
2022/03/16 02:25:23;;;;;;;14.27;12.53;;;;;;;;;;4988045;28;20046;-71
2022/03/16 02:27:54;;;;;;;13.30;12.00;;;;;;;;;;4989681;28;20296;-70
2022/03/16 02:30:22;;;;;;;13.55;12.13;;;;;;;;;;4986485;28;20044;-71
2022/03/16 02:32:49;;;;;;;15.48;13.88;;;;;;;;;;4989322;28;20121;-71
2022/03/16 02:35:17;;;;;;;12.20;10.98;;;;;;;;;;4988151;28;20077;-70
2022/03/16 02:37:44;;;;;;;14.45;12.93;;;;;;;;;;5004214;28;20080;-71
2022/03/16 02:40:16;;;;;;;14.82;13.18;;;;;;;;;;4988772;28;20605;-71
2022/03/16 02:42:43;;;;;;;12.85;11.55;;;;;;;;;;5005724;28;20046;-68
2022/03/16 02:45:11;;;;;;;13.13;11.75;;;;;;;;;;4988959;28;20049;-68
2022/03/16 02:47:40;;;;;;;14.40;12.90;;;;;;;;;;4988712;28;20050;-71
2022/03/16 02:50:08;;;;;;;13.68;12.27;;;;;;;;;;4990273;28;20569;-71
2022/03/16 02:52:35;;;;;;;14.82;13.32;;;;;;;;;;4989885;28;20042;-71
2022/03/16 02:55:03;;;;;;;13.32;11.95;;;;;;;;;;4989469;28;20043;-70
2022/03/16 02:57:31;;;;;;;13.10;11.77;;;;;;;;;;4989373;28;20070;-70
2022/03/16 02:59:58;;;;;;;16.23;14.52;;;;;;;;;;5002394;28;20054;-68
2022/03/16 03:02:25;;;;;;;15.90;14.20;;;;;;;;;;4988518;28;20081;-71
2022/03/16 03:04:53;;;;;;;16.08;14.07;;;;;;;;;;4989362;28;20061;-71
2022/03/16 03:07:20;;;;;;;16.25;14.55;;;;;;;;;;4989023;28;20425;-68
2022/03/16 03:09:48;;;;;;;13.48;11.27;;;;;;;;;;4989678;28;20042;-71
2022/03/16 03:12:15;;;;;;;14.30;12.73;;;;;;;;;;4989308;28;20058;-69
2022/03/16 03:14:43;;;;;;;16.58;14.68;;;;;;;;;;4988844;28;20046;-68
2022/03/16 03:17:10;;;;;;;13.18;11.88;;;;;;;;;;4988349;28;20072;-74
2022/03/16 03:19:38;;;;;;;15.75;13.73;;;;;;;;;;4988854;28;20402;-70
2022/03/16 03:22:05;;;;;;;15.82;13.32;;;;;;;;;;4989412;28;20109;-71
2022/03/16 03:24:33;;;;;;;15.88;13.80;;;;;;;;;;4984129;28;20043;-71
2022/03/16 03:27:00;;;;;;;17.17;15.38;;;;;;;;;;5002767;28;20054;-71
2022/03/16 03:29:28;;;;;;;20.20;16.75;;;;;;;;;;4968886;28;20127;-69
2022/03/16 03:31:55;;;;;;;20.90;16.70;;;;;;;;;;4987082;28;20116;-71
2022/03/16 03:34:22;;;;;;;15.05;13.43;;;;;;;;;;4988855;28;20407;-68
2022/03/16 03:36:50;;;;;;;19.95;16.55;;;;;;;;;;4987963;28;20085;-71
2022/03/16 03:39:18;;;;;;;15.55;13.82;;;;;;;;;;4975151;28;20057;-71
2022/03/16 03:41:45;;;;;;;16.98;15.15;;;;;;;;;;4976918;28;20061;-69
2022/03/16 03:44:12;;;;;;;17.55;15.40;;;;;;;;;;4983789;28;20050;-71
2022/03/16 03:46:40;;;;;;;19.42;15.98;;;;;;;;;;4983618;28;20050;-69
2022/03/16 03:49:07;;;;;;;16.42;14.73;;;;;;;;;;4981262;28;20112;-70
2022/03/16 03:51:34;;;;;;;19.67;16.90;;;;;;;;;;4984160;28;20042;-71
2022/03/16 03:54:02;;;;;;;18.83;15.82;;;;;;;;;;5029418;22;20061;-68
2022/03/16 03:56:29;;;;;;;18.92;16.73;;;;;;;;;;5024285;28;20048;-68
2022/03/16 03:58:57;;;;;;;19.05;17.02;;;;;;;;;;5025182;28;20053;-67
2022/03/16 04:01:24;;;;;;;19.88;16.83;;;;;;;;;;5015448;28;20493;-68
2022/03/16 04:03:52;;;;;;;20.27;16.13;;;;;;;;;;5018695;28;20409;-67
2022/03/16 04:06:19;;;;;;;21.33;17.05;;;;;;;;;;5024904;28;20045;-68
2022/03/16 04:08:46;;;;;;;16.92;15.02;;;;;;;;;;5025568;28;20056;-68
2022/03/16 04:11:14;;;;;;;20.27;17.05;;;;;;;;;;5024057;28;20037;-67
2022/03/16 04:13:41;;;;;;;20.38;17.58;;;;;;;;;;5025393;28;20397;-67
2022/03/16 04:16:08;;;;;;;18.10;16.02;;;;;;;;;;5028370;28;20416;-69
2022/03/16 04:18:36;;;;;;;21.00;18.55;;;;;;;;;;5028468;28;20451;-69
2022/03/16 04:21:03;;;;;;;16.77;14.32;;;;;;;;;;5026377;28;20048;-67
2022/03/16 04:23:31;;;;;;;18.83;16.08;;;;;;;;;;5028676;28;20065;-68
2022/03/16 04:25:58;;;;;;;18.30;15.45;;;;;;;;;;5026914;28;20047;-67
2022/03/16 04:28:26;;;;;;;20.63;17.98;;;;;;;;;;5029761;28;20479;-69
2022/03/16 04:30:53;;;;;;;15.02;13.43;;;;;;;;;;5026704;28;20442;-67
2022/03/16 04:33:20;;;;;;;21.15;16.27;;;;;;;;;;5028878;28;20564;-68
2022/03/16 04:35:48;;;;;;;14.02;12.25;;;;;;;;;;5028679;28;20041;-67
2022/03/16 04:38:15;;;;;;;16.05;14.23;;;;;;;;;;5029150;28;20603;-68
2022/03/16 04:40:42;;;;;;;21.40;17.15;;;;;;;;;;5025416;28;20037;-69
2022/03/16 04:43:10;;;;;;;20.92;17.42;;;;;;;;;;5020389;28;20049;-68
2022/03/16 04:45:39;;;;;;;19.55;16.45;;;;;;;;;;5024751;28;20033;-68
2022/03/16 04:48:11;;;;;;;20.58;18.30;;;;;;;;;;5023991;28;20084;-68
2022/03/16 04:50:39;;;;;;;18.90;16.85;;;;;;;;;;5024498;28;20045;-68
2022/03/16 04:53:07;;;;;;;23.10;19.38;;;;;;;;;;5026981;28;20034;-69
2022/03/16 04:55:37;;;;;;;22.65;18.17;;;;;;;;;;5029329;28;20045;-69
2022/03/16 04:58:05;;;;;;;25.95;19.70;;;;;;;;;;5030338;28;20049;-69
2022/03/16 05:00:34;;;;;;;24.50;19.27;;;;;;;;;;5028965;28;20038;-69
2022/03/16 05:03:04;;;;;;;23.98;17.60;;;;;;;;;;5029601;28;20045;-70
2022/03/16 05:05:32;;;;;;;23.90;19.33;;;;;;;;;;5028185;28;20463;-71
2022/03/16 05:08:00;;;;;;;23.20;18.45;;;;;;;;;;5029542;28;20052;-70
2022/03/16 05:10:30;;;;;;;27.90;20.83;;;;;;;;;;5028661;28;20048;-70
2022/03/16 05:12:57;;;;;;;23.70;18.73;;;;;;;;;;5028651;28;20563;-69
2022/03/16 05:15:24;;;;;;;23.05;18.50;;;;;;;;;;5028843;28;20037;-69
2022/03/16 05:17:52;;;;;;;27.30;20.63;;;;;;;;;;5029321;28;20046;-70
2022/03/16 05:20:20;;;;;;;25.58;18.65;;;;;;;;;;5029278;28;20038;-70
2022/03/16 05:22:48;;;;;;;22.23;18.50;;;;;;;;;;5020515;28;20048;-70
2022/03/16 05:25:18;;;;;;;24.48;19.52;;;;;;;;;;5028004;28;20049;-70
2022/03/16 05:27:45;;;;;;;27.67;19.55;;;;;;;;;;5022937;28;20531;-70
2022/03/16 05:30:13;;;;;;;26.25;20.02;;;;;;;;;;5028273;28;20088;-70
2022/03/16 05:32:41;;;;;;;25.13;19.67;;;;;;;;;;5024218;28;20064;-70
2022/03/16 05:35:12;;;;;;;22.58;19.23;;;;;;;;;;5025558;28;20049;-70
2022/03/16 05:37:40;;;;;;;24.40;19.40;;;;;;;;;;5023518;28;20048;-70
2022/03/16 05:40:08;;;;;;;24.48;19.63;;;;;;;;;;5026558;28;20497;-70
2022/03/16 05:42:36;;;;;;;25.95;19.67;;;;;;;;;;5027643;28;20037;-70
2022/03/16 05:45:04;;;;;;;23.80;19.25;;;;;;;;;;5026447;28;20124;-70
2022/03/16 05:47:31;;;;;;;25.05;18.65;;;;;;;;;;5026199;28;20427;-70
2022/03/16 05:49:59;;;;;;;21.73;18.00;;;;;;;;;;5025710;28;20064;-70
2022/03/16 05:52:27;;;;;;;24.58;19.48;;;;;;;;;;5025330;28;20042;-70
2022/03/16 05:54:55;;;;;;;21.98;18.02;;;;;;;;;;5016805;28;20041;-70
2022/03/16 05:57:23;;;;;;;20.15;17.98;;;;;;;;;;5024540;28;20068;-71
2022/03/16 05:59:51;;;;;;;21.50;16.80;;;;;;;;;;5027925;28;20052;-70
2022/03/16 06:02:18;;;;;;;17.75;15.68;;;;;;;;;;5027549;28;20508;-70
2022/03/16 06:04:46;;;;;;;17.75;15.85;;;;;;;;;;5024312;28;20439;-70
2022/03/16 06:07:13;;;;;;;20.95;16.80;;;;;;;;;;5023125;28;20072;-70
2022/03/16 06:09:41;;;;;;;20.13;17.02;;;;;;;;;;5021934;28;20052;-70
2022/03/16 06:12:09;;;;;;;20.45;17.92;;;;;;;;;;5022159;28;20670;-70
2022/03/16 06:14:36;;;;;;;16.98;15.18;;;;;;;;;;5017005;28;20038;-70
2022/03/16 06:17:03;;;;;;;17.52;15.73;;;;;;;;;;5017454;28;20060;-70
2022/03/16 06:19:31;;;;;;;18.15;16.25;;;;;;;;;;5018470;28;20076;-69
2022/03/16 06:21:58;;;;;;;18.98;16.77;;;;;;;;;;5019236;28;20124;-70
2022/03/16 06:24:26;;;;;;;16.88;15.18;;;;;;;;;;5012004;28;20052;-68
2022/03/16 06:26:54;;;;;;;16.67;14.95;;;;;;;;;;5023661;28;20153;-70
2022/03/16 06:29:21;;;;;;;17.73;15.82;;;;;;;;;;5027863;28;20041;-70
2022/03/16 06:31:49;;;;;;;16.88;15.18;;;;;;;;;;5026710;28;20520;-70
2022/03/16 06:34:17;;;;;;;16.65;14.80;;;;;;;;;;5023704;28;20076;-70
2022/03/16 06:36:44;;;;;;;15.80;14.07;;;;;;;;;;5015606;28;20038;-70
2022/03/16 06:39:11;;;;;;;15.10;13.50;;;;;;;;;;5022288;28;20064;-69
2022/03/16 06:41:39;;;;;;;15.18;13.40;;;;;;;;;;5022454;28;20062;-70
2022/03/16 06:44:06;;;;;;;15.85;14.13;;;;;;;;;;5020385;28;20041;-70
2022/03/16 06:46:33;;;;;;;15.63;13.93;;;;;;;;;;5022491;28;20049;-70
2022/03/16 06:49:00;;;;;;;13.15;11.85;;;;;;;;;;5021615;28;20046;-70
2022/03/16 06:51:28;;;;;;;15.27;13.02;;;;;;;;;;5018566;28;20049;-70
2022/03/16 06:53:56;;;;;;;14.07;12.68;;;;;;;;;;5021098;28;20528;-70
2022/03/16 06:56:23;;;;;;;13.02;11.73;;;;;;;;;;5026102;28;20046;-70
2022/03/16 06:58:51;;;;;;;13.55;12.15;;;;;;;;;;5023120;28;20045;-69
2022/03/16 07:01:18;;;;;;;14.27;12.93;;;;;;;;;;5020188;28;20039;-69
2022/03/16 07:03:46;;;;;;;15.82;12.80;;;;;;;;;;5027166;28;20045;-70
2022/03/16 07:06:13;;;;;;;12.15;10.77;;;;;;;;;;5024824;28;20046;-69
2022/03/16 07:08:41;;;;;;;11.50;9.68;;;;;;;;;;5025048;28;20037;-68
2022/03/16 07:11:08;;;;;;;11.38;9.93;;;;;;;;;;5025717;28;20541;-69
2022/03/16 07:13:36;;;;;;;11.60;10.50;;;;;;;;;;5025888;28;20051;-68
2022/03/16 07:16:03;;;;;;;11.32;10.23;;;;;;;;;;5023920;28;20041;-69
2022/03/16 07:18:38;;;;;;;12.60;11.30;;;;;;;;;;5026167;28;20059;-70
2022/03/16 07:21:05;;;;;;;10.80;9.70;;;;;;;;;;5025077;28;20120;-70
2022/03/16 07:23:33;;;;;;;12.90;11.60;;;;;;;;;;5017902;28;20197;-69
2022/03/16 07:26:01;;;;;;;12.23;11.05;;;;;;;;;;5023955;28;20041;-68
2022/03/16 07:28:28;;;;;;;10.68;9.68;;;;;;;;;;5025530;28;20067;-70
2022/03/16 07:30:55;;;;;;;12.00;10.80;;;;;;;;;;5024573;28;20042;-69
2022/03/16 07:33:23;;;;;;;13.60;12.15;;;;;;;;;;5023311;28;20057;-70
2022/03/16 07:35:55;;;;;;;10.80;9.73;;;;;;;;;;5016018;28;20358;-70
2022/03/16 07:38:23;;;;;;;12.52;11.43;;;;;;;;;;5020348;28;20494;-70
2022/03/16 07:40:50;;;;;;;11.05;10.05;;;;;;;;;;5023497;28;20745;-69
2022/03/16 07:43:17;;;;;;;11.02;9.30;;;;;;;;;;5024839;28;20544;-69
2022/03/16 07:45:44;;;;;;;13.02;11.73;;;;;;;;;;5018209;28;20076;-70
2022/03/16 07:48:12;;;;;;;14.05;11.55;;;;;;;;;;5022640;28;20049;-70
2022/03/16 07:50:39;;;;;;;10.68;9.57;;;;;;;;;;5021866;28;20067;-69
2022/03/16 07:53:07;;;;;;;12.13;10.93;;;;;;;;;;5024516;28;20063;-70
2022/03/16 07:55:34;;;;;;;16.90;10.98;;;;;;;;;;5021257;28;20037;-70
2022/03/16 07:58:02;;;;;;;11.80;10.60;;;;;;;;;;5017379;28;20047;-69
2022/03/16 08:00:29;;;;;;;11.68;10.48;;;;;;;;;;5022305;28;20041;-68
2022/03/16 08:02:59;;;;;;;12.73;11.52;;;;;;;;;;5026253;28;20498;-68
2022/03/16 08:05:26;;;;;;;14.40;10.93;;;;;;;;;;5021595;28;20048;-68
2022/03/16 08:07:53;;;;;;;12.77;11.48;;;;;;;;;;5015769;28;20045;-70
2022/03/16 08:10:21;;;;;;;18.30;11.27;;;;;;;;;;5026708;28;20042;-70
2022/03/16 08:12:48;;;;;;;11.73;10.52;;;;;;;;;;5029040;28;20045;-70
2022/03/16 08:15:16;;;;;;;14.65;10.70;;;;;;;;;;5026783;28;20205;-70
2022/03/16 08:17:43;;;;;;;12.63;11.43;;;;;;;;;;5028099;28;20040;-70
2022/03/16 08:20:11;;;;;;;12.00;10.88;;;;;;;;;;5027918;28;20049;-69
2022/03/16 08:22:38;;;;;;;12.32;10.20;;;;;;;;;;5028213;28;20116;-69
2022/03/16 08:25:07;;;;;;;13.45;11.27;;;;;;;;;;5026691;28;20103;-69
2022/03/16 08:27:35;;;;;;;14.00;11.20;;;;;;;;;;5025538;28;20049;-70
2022/03/16 08:30:03;;;;;;;11.05;9.95;;;;;;;;;;5026797;28;20033;-70
2022/03/16 08:32:30;;;;;;;13.15;11.65;;;;;;;;;;5027225;28;20037;-70
2022/03/16 08:34:57;;;;;;;12.30;10.45;;;;;;;;;;5025360;28;20041;-71
2022/03/16 08:37:25;;;;;;;12.45;11.15;;;;;;;;;;5027002;28;20052;-70
2022/03/16 08:39:52;;;;;;;11.65;10.65;;;;;;;;;;5027305;28;20428;-69
2022/03/16 08:42:19;;;;;;;11.70;10.50;;;;;;;;;;5026659;28;20046;-68
2022/03/16 08:44:47;;;;;;;12.30;11.00;;;;;;;;;;5026471;28;20041;-70
2022/03/16 08:47:19;;;;;;;11.80;10.70;;;;;;;;;;5026823;28;20037;-69
2022/03/16 08:49:48;;;;;;;12.90;11.63;;;;;;;;;;5022713;28;20339;-70
2022/03/16 08:52:15;;;;;;;12.05;10.88;;;;;;;;;;5027307;28;20079;-69
2022/03/16 08:54:44;;;;;;;11.90;10.90;;;;;;;;;;5027429;28;20136;-69
2022/03/16 08:57:11;;;;;;;11.90;10.80;;;;;;;;;;5020933;28;20060;-69
2022/03/16 08:59:39;;;;;;;13.55;12.13;;;;;;;;;;5025400;28;20060;-69
2022/03/16 09:02:06;;;;;;;12.05;10.95;;;;;;;;;;5023924;28;20049;-68
2022/03/16 09:04:34;;;;;;;14.10;12.70;;;;;;;;;;5025570;28;20045;-70
2022/03/16 09:07:02;;;;;;;13.80;12.48;;;;;;;;;;5030719;28;20132;-69
2022/03/16 09:09:29;;;;;;;13.52;12.10;;;;;;;;;;5025148;28;20092;-70
2022/03/16 09:11:57;;;;;;;13.50;12.27;;;;;;;;;;5027123;28;20643;-69
2022/03/16 09:14:24;;;;;;;16.88;13.32;;;;;;;;;;5028007;28;20041;-71
2022/03/16 09:16:53;;;;;;;14.90;13.50;;;;;;;;;;5022511;28;20056;-70
2022/03/16 09:19:21;;;;;;;15.02;13.52;;;;;;;;;;5026106;28;20056;-72
2022/03/16 09:21:49;;;;;;;13.57;12.27;;;;;;;;;;5026875;28;20064;-70
2022/03/16 09:24:16;;;;;;;14.30;12.98;;;;;;;;;;5022327;28;20050;-70
2022/03/16 09:26:44;;;;;;;15.10;13.68;;;;;;;;;;5022546;28;20038;-70
2022/03/16 09:29:12;;;;;;;14.15;12.75;;;;;;;;;;5008882;28;20041;-71
2022/03/16 09:31:42;;;;;;;15.15;13.13;;;;;;;;;;5022368;28;20041;-70
2022/03/16 09:34:10;;;;;;;13.98;12.68;;;;;;;;;;5023149;28;20053;-71
2022/03/16 09:36:38;;;;;;;15.15;13.70;;;;;;;;;;5023778;28;20055;-71
2022/03/16 09:39:05;;;;;;;15.98;13.02;;;;;;;;;;5026063;28;20037;-70
2022/03/16 09:41:33;;;;;;;14.63;13.27;;;;;;;;;;5025115;28;20140;-70
2022/03/16 09:44:04;;;;;;;14.57;13.13;;;;;;;;;;5026646;28;20077;-69
2022/03/16 09:46:32;;;;;;;14.23;12.77;;;;;;;;;;5026275;28;20065;-69
2022/03/16 09:49:00;;;;;;;15.55;13.57;;;;;;;;;;5021707;28;20048;-69
2022/03/16 09:51:34;;;;;;;15.43;13.93;;;;;;;;;;5022428;28;20049;-71
2022/03/16 09:54:05;;;;;;;15.40;13.90;;;;;;;;;;5061359;22;20060;-76
2022/03/16 09:56:36;;;;;;;17.65;14.40;;;;;;;;;;5002122;28;20038;-77
2022/03/16 09:59:04;;;;;;;15.07;13.48;;;;;;;;;;5000660;28;20046;-77
2022/03/16 10:01:34;;;;;;;15.15;13.73;;;;;;;;;;5007158;28;20039;-77
2022/03/16 10:04:05;;;;;;;16.23;14.63;;;;;;;;;;5009060;28;20092;-75
2022/03/16 10:06:36;;;;;;;14.90;13.43;;;;;;;;;;4995626;28;20054;-76
2022/03/16 10:15:04;;;;;;;16.67;14.85;;;;;;;;;;5010180;28;20057;-76
2022/03/16 10:17:43;;;;;;;15.32;13.82;;;;;;;;;;5009546;28;20042;-77
2022/03/16 10:20:21;;;;;;;17.23;15.43;;;;;;;;;;5009645;28;20425;-77
2022/03/16 10:23:03;;;;;;;16.17;14.57;;;;;;;;;;5009906;28;20041;-77
2022/03/16 10:25:31;;;;;;;17.95;15.57;;;;;;;;;;5009333;28;20050;-76
2022/03/16 10:28:10;;;;;;;17.58;15.80;;;;;;;;;;5012264;23;20049;-70
2022/03/16 10:30:50;;;;;;;18.60;15.80;;;;;;;;;;4999147;28;20038;-70
2022/03/16 10:33:19;;;;;;;17.20;14.25;;;;;;;;;;5005461;28;20072;-70
2022/03/16 10:36:06;;;;;;;16.63;14.95;;;;;;;;;;4992527;28;20050;-70
2022/03/16 10:38:40;;;;;;;16.90;15.20;;;;;;;;;;5000658;28;20575;-69
2022/03/16 10:41:11;;;;;;;19.15;17.13;;;;;;;;;;5003804;28;20069;-69
2022/03/16 10:46:34;;;;;;;16.92;15.23;;;;;;;;;;5001302;28;20327;-69
2022/03/16 10:49:02;;;;;;;19.08;17.08;;;;;;;;;;5004111;28;20548;-70
2022/03/16 10:51:30;;;;;;;18.20;16.33;;;;;;;;;;5003629;28;20041;-70
2022/03/16 10:54:18;;;;;;;19.20;17.35;;;;;;;;;;5002536;28;20162;-70
2022/03/16 10:56:47;;;;;;;18.70;16.80;;;;;;;;;;5002539;28;20934;-69
2022/03/16 10:59:15;;;;;;;19.55;17.45;;;;;;;;;;5002467;28;20454;-69
2022/03/16 11:01:42;;;;;;;18.15;16.13;;;;;;;;;;5003805;28;20055;-71
2022/03/16 11:04:10;;;;;;;19.35;17.42;;;;;;;;;;5003423;28;20088;-70
2022/03/16 11:06:39;;;;;;;19.35;17.35;;;;;;;;;;5002587;28;20037;-72
2022/03/16 11:09:06;;;;;;;21.45;17.45;;;;;;;;;;4997312;28;20057;-71
2022/03/16 11:14:23;;;;;;;18.77;16.05;;;;;;;;;;5000503;28;20628;-71
2022/03/16 11:16:51;;;;;;;19.75;17.85;;;;;;;;;;5001126;28;20461;-70
2022/03/16 11:19:22;;;;;;;19.00;17.15;;;;;;;;;;4992816;28;20045;-70
2022/03/16 11:21:53;;;;;;;20.58;18.48;;;;;;;;;;4996506;28;20378;-69
2022/03/16 11:24:23;;;;;;;20.05;17.95;;;;;;;;;;5000106;28;20421;-70
2022/03/16 11:27:10;;;;;;;19.52;17.52;;;;;;;;;;4983470;28;20136;-72
2022/03/16 11:29:47;;;;;;;20.17;18.15;;;;;;;;;;4994266;28;20042;-71
2022/03/16 11:32:15;;;;;;;22.65;19.40;;;;;;;;;;5001375;28;20060;-71
2022/03/16 11:34:56;;;;;;;20.23;18.17;;;;;;;;;;4985698;28;20045;-71
2022/03/16 11:37:33;;;;;;;18.45;16.65;;;;;;;;;;4999870;28;20454;-71
2022/03/16 11:40:09;;;;;;;21.38;19.25;;;;;;;;;;5002428;28;20073;-71
2022/03/16 11:42:38;;;;;;;21.80;19.60;;;;;;;;;;4996491;28;20038;-71
2022/03/16 11:45:26;;;;;;;20.42;17.60;;;;;;;;;;4995072;28;20553;-70
2022/03/16 11:47:54;;;;;;;21.77;18.75;;;;;;;;;;4989451;28;20139;-71
2022/03/16 11:50:21;;;;;;;20.52;18.13;;;;;;;;;;4998821;28;20038;-70
2022/03/16 11:52:58;;;;;;;19.65;17.70;;;;;;;;;;4987405;28;20185;-70
2022/03/16 11:55:39;;;;;;;20.75;18.67;;;;;;;;;;4979137;28;20532;-71
2022/03/16 11:58:27;;;;;;;20.20;18.07;;;;;;;;;;4987692;28;20044;-69
2022/03/16 12:01:13;;;;;;;20.10;18.00;;;;;;;;;;4983608;28;20296;-70
2022/03/16 12:03:44;;;;;;;23.42;19.88;;;;;;;;;;4986407;28;20077;-71
2022/03/16 12:06:12;;;;;;;21.43;19.23;;;;;;;;;;4987301;28;20526;-71
2022/03/16 12:08:58;;;;;;;20.17;18.00;;;;;;;;;;4987158;28;20398;-71
2022/03/16 12:14:19;;;;;;;25.05;19.67;;;;;;;;;;4989984;28;21279;-70
2022/03/16 12:16:46;;;;;;;21.13;18.73;;;;;;;;;;4992608;28;20045;-72
2022/03/16 12:19:28;;;;;;;21.25;17.27;;;;;;;;;;4991048;28;20050;-70
2022/03/16 12:21:57;;;;;;;19.08;17.17;;;;;;;;;;4992558;28;20063;-70
2022/03/16 12:30:10;;;;;;;25.55;18.27;;;;;;;;;;4991429;28;20141;-70
2022/03/16 12:32:38;;;;;;;24.88;18.63;;;;;;;;;;4990620;28;20445;-70
2022/03/16 12:35:06;;;;;;;18.23;16.38;;;;;;;;;;4992390;28;20046;-70
2022/03/16 12:37:33;;;;;;;21.90;16.98;;;;;;;;;;4991370;28;20350;-70
2022/03/16 12:40:01;;;;;;;22.65;18.80;;;;;;;;;;4990512;28;20042;-70
2022/03/16 12:42:31;;;;;;;20.42;18.33;;;;;;;;;;4989869;28;20069;-71
2022/03/16 12:45:09;;;;;;;22.60;20.17;;;;;;;;;;4990924;28;20045;-71
2022/03/16 12:47:47;;;;;;;20.85;18.65;;;;;;;;;;4988770;28;20177;-71
2022/03/16 12:50:16;;;;;;;20.83;18.00;;;;;;;;;;4987719;28;20320;-71
2022/03/16 12:52:49;;;;;;;21.42;19.27;;;;;;;;;;4990528;28;20069;-71
2022/03/16 12:55:17;;;;;;;20.15;18.10;;;;;;;;;;4986465;28;20050;-71
2022/03/16 12:57:52;;;;;;;19.55;17.55;;;;;;;;;;4987710;28;20395;-71
2022/03/16 13:00:19;;;;;;;24.77;19.77;;;;;;;;;;4986213;28;20537;-71
2022/03/16 13:02:47;;;;;;;21.00;17.80;;;;;;;;;;4991587;28;20412;-71
2022/03/16 13:05:17;;;;;;;21.13;18.98;;;;;;;;;;4988864;28;20056;-71
2022/03/16 13:07:45;;;;;;;20.75;18.65;;;;;;;;;;4990191;28;20124;-71
2022/03/16 13:10:12;;;;;;;19.73;17.63;;;;;;;;;;4993871;28;20061;-71
2022/03/16 13:12:56;;;;;;;21.55;19.35;;;;;;;;;;4999473;28;20042;-71
2022/03/16 13:15:25;;;;;;;19.95;17.95;;;;;;;;;;5000547;28;20092;-72
2022/03/16 13:17:53;;;;;;;22.33;20.10;;;;;;;;;;5000832;28;20124;-72
2022/03/16 13:20:25;;;;;;;19.65;17.65;;;;;;;;;;5000723;28;20553;-71
2022/03/16 13:23:02;;;;;;;18.92;17.02;;;;;;;;;;4999966;28;20124;-71
2022/03/16 13:25:29;;;;;;;21.58;19.27;;;;;;;;;;5011866;28;20136;-70
2022/03/16 13:27:57;;;;;;;19.92;17.83;;;;;;;;;;4996965;28;20046;-71
2022/03/16 13:30:24;;;;;;;21.90;19.73;;;;;;;;;;4994243;28;20506;-71
2022/03/16 13:32:53;;;;;;;20.70;18.52;;;;;;;;;;4990766;28;20132;-71
2022/03/16 13:35:28;;;;;;;21.90;19.70;;;;;;;;;;5012328;28;20046;-71
2022/03/16 13:38:00;;;;;;;20.08;18.08;;;;;;;;;;4990561;28;20037;-71
2022/03/16 13:40:29;;;;;;;21.95;19.65;;;;;;;;;;4992674;28;20449;-71
2022/03/16 13:43:04;;;;;;;22.52;19.83;;;;;;;;;;4996469;28;20042;-71
2022/03/16 13:45:38;;;;;;;22.45;20.25;;;;;;;;;;5002732;28;20038;-70
2022/03/16 13:48:06;;;;;;;20.25;18.30;;;;;;;;;;5003698;28;20038;-70
2022/03/16 13:50:34;;;;;;;21.63;19.33;;;;;;;;;;5002075;28;20043;-73
2022/03/16 13:53:18;;;;;;;22.45;20.15;;;;;;;;;;4988390;28;20056;-71
2022/03/16 13:55:49;;;;;;;19.95;18.02;;;;;;;;;;4989087;28;20048;-71
2022/03/16 13:58:18;;;;;;;20.70;18.67;;;;;;;;;;4998513;28;20112;-72
2022/03/16 14:00:53;;;;;;;20.73;18.70;;;;;;;;;;4997517;28;21861;-71
2022/03/16 14:03:25;;;;;;;21.15;18.95;;;;;;;;;;4995189;28;20046;-71
2022/03/16 14:05:54;;;;;;;19.15;17.25;;;;;;;;;;4987018;28;20165;-71
2022/03/16 14:08:22;;;;;;;18.17;16.42;;;;;;;;;;4988668;28;20609;-71
2022/03/16 14:10:50;;;;;;;17.95;16.10;;;;;;;;;;4990628;28;20042;-71
2022/03/16 14:13:19;;;;;;;21.02;18.30;;;;;;;;;;4989618;28;20442;-71
2022/03/16 14:15:46;;;;;;;18.42;16.48;;;;;;;;;;4987347;28;20041;-70
2022/03/16 14:18:18;;;;;;;19.30;17.30;;;;;;;;;;4989449;28;20140;-70
2022/03/16 14:20:51;;;;;;;18.15;16.35;;;;;;;;;;4990815;28;20325;-71
2022/03/16 14:23:19;;;;;;;17.53;15.73;;;;;;;;;;4993630;28;20042;-71
2022/03/16 14:25:48;;;;;;;18.00;16.23;;;;;;;;;;4990234;28;20289;-70
2022/03/16 14:28:16;;;;;;;16.83;15.23;;;;;;;;;;5006494;28;20042;-70
2022/03/16 14:30:49;;;;;;;18.13;15.85;;;;;;;;;;4990315;28;20042;-70
2022/03/16 14:33:20;;;;;;;17.17;15.38;;;;;;;;;;4992344;28;20037;-70
2022/03/16 14:35:48;;;;;;;16.98;15.27;;;;;;;;;;4990779;28;20081;-70
2022/03/16 14:38:15;;;;;;;15.55;13.95;;;;;;;;;;4988526;28;20042;-70
2022/03/16 14:40:54;;;;;;;18.50;14.45;;;;;;;;;;4990914;28;20881;-70
2022/03/16 14:43:22;;;;;;;16.38;14.70;;;;;;;;;;4991041;28;20125;-70
2022/03/16 14:45:50;;;;;;;17.27;14.18;;;;;;;;;;4987785;28;20505;-71
2022/03/16 14:48:17;;;;;;;15.13;13.65;;;;;;;;;;4990221;28;20693;-72